Kokomo, IN

12:57 AM EDT on September 01, 2015 (GMT -0400)
Kokomo Municipal | | Change Station
CLOSE
Current Station
Airport
Location: Kokomo,
Elevation: 830 ft
Nearby Weather Stations

Elev 830 ft 40.53 °N, 86.06 °W | Updated 2 minutes ago

Scattered Clouds
Scattered Clouds
70 °F
Feels Like 70 °F
N
4
Wind Variable Wind from SSW

Today
High -- | Low -- °F
--% Chance of Precip.
Yesterday
High -- | Low -- °F
Precip. -- in
7:11 AM 8:16 PM
Waning Gibbous, 91% visible
Pressure 30.10 in
Visibility 10.0 miles
Clouds Scattered Clouds 3700 ft
Dew Point 64 °F
Humidity 83%
Rainfall 0.00 in
Snow Depth Not available.
UV 0 out of 12
Pollen 10.80 out of 12
Air Quality Not available.
Flu Activity Not available.
METAR KOKK 010455Z AUTO 21003KT 10SM SCT037 21/18 A3010 RMK AO1
Pressure 30.10 in
Visibility 10.0 miles
Clouds Scattered Clouds 3700 ft
Dew Point 64 °F
Humidity 83%
Rainfall 0.00 in
Snow Depth Not available.
UV 0 out of 12
Pollen 10.80 out of 12
Air Quality Not available.
Flu Activity Not available.
METAR KOKK 010455Z AUTO 21003KT 10SM SCT037 21/18 A3010 RMK AO1

10-Day Weather Forecast

×

Almanac

Astronomy

Sep. 01, 2015 Rise Set
Actual Time
Civil Twilight
Nautical Twilight
Astronomical Twilight
Moon
Length of Visible Light
Length of Day
Tomorrow will be .
, % of the Moon is Illuminated

Today's Extremes

State Highs State Lows

Community

WunderPhotos

Upload Photos

1,851,479 photos uploaded!

WunderBlogs® & News

Nearby

Air Quality

  Air Quality AQ Index Pollutant
Not available.

Snow Depth

Station Depth Elevation

Earthquake Activity

City Distance Mag. Time & Date
Minimum magnitude displayed is 2.5.

Coastal Water Temperatures

Place Temperature

Stations

Nearby Weather Stations

Station Location Temp. Windchill Dew Point Humidity Wind Precip. Elev Updated Type